Sterling, Nebraska
Current Conditions -  °F | °C
As of 4:15 AM on Thursday 18 Dec 2014 (Local Time) from KBIE Reporting Station
Light Snow Light Snow  
Wind Chill: 27°   Ceiling: 1200
Heat Index: 27°   Visibility: 2mi
Dew Point: 24°   Wind: 3mph
Humidity: 92%   Direction: 100°E
Pressure: 30.19"   Gusts: NA
Location:  40.46°N, 96.38°W
Report Text: KBIE 181015Z AUTO 10003KT 2SM -SN OVC012 M03/M04 A3019 RMK AO2 T10301042
Loading
Personal Weather Stations






























Interactive Weather Map New forecast layout! Learn more

10-Day Weather Forecast

Advertisements
Track Severe Weather on mobile